createdAt,value
2022-08-09T00:01:42.840Z,60.75
2022-08-09T00:04:33.957Z,60.63
2022-08-09T00:07:07.762Z,60.69
2022-08-09T00:09:39.350Z,60.60
2022-08-09T00:12:07.940Z,60.54
2022-08-09T00:14:38.541Z,60.62
2022-08-09T00:17:07.431Z,60.43
2022-08-09T00:19:36.168Z,60.22
2022-08-09T00:22:04.284Z,60.06
2022-08-09T00:24:34.173Z,60.17
2022-08-09T00:27:02.531Z,60.37
2022-08-09T00:30:23.397Z,60.45
2022-08-09T00:32:26.723Z,60.22
2022-08-09T00:34:56.560Z,60.15
2022-08-09T00:37:27.042Z,60.05
2022-08-09T00:40:13.363Z,59.66
2022-08-09T00:44:24.949Z,59.67
2022-08-09T00:45:34.763Z,59.43
2022-08-09T00:48:05.586Z,59.07
2022-08-09T00:50:35.214Z,58.77
2022-08-09T00:53:10.181Z,58.79
2022-08-09T00:56:05.258Z,58.56
2022-08-09T00:58:27.913Z,58.47
2022-08-09T01:00:58.986Z,58.39
2022-08-09T01:03:36.487Z,58.23
2022-08-09T01:06:21.746Z,58.18
2022-08-09T01:09:16.882Z,58.06
2022-08-09T01:11:55.993Z,57.99
2022-08-09T01:14:41.183Z,58.14
2022-08-09T01:17:19.281Z,58.17
2022-08-09T01:20:02.865Z,58.06
2022-08-09T01:23:12.456Z,58.13
2022-08-09T01:26:22.035Z,58.11
2022-08-09T01:28:55.123Z,58.37
2022-08-09T01:32:29.783Z,58.39
2022-08-09T01:34:18.336Z,58.44
2022-08-09T01:36:49.123Z,58.22
2022-08-09T01:39:17.706Z,58.21
2022-08-09T01:41:53.707Z,58.12
2022-08-09T01:44:29.967Z,58.30
2022-08-09T01:47:01.047Z,58.36
2022-08-09T01:49:39.041Z,58.38
2022-08-09T01:52:12.536Z,58.53
2022-08-09T01:54:48.499Z,58.51
2022-08-09T01:57:20.658Z,58.68
2022-08-09T01:59:52.993Z,58.80
2022-08-09T02:02:30.090Z,58.90
2022-08-09T02:05:11.812Z,58.99
2022-08-09T02:08:40.365Z,59.08
2022-08-09T02:10:51.131Z,59.10
2022-08-09T02:13:25.869Z,59.25
2022-08-09T02:16:06.862Z,59.34
2022-08-09T02:18:38.398Z,59.33
2022-08-09T02:21:21.790Z,59.44
2022-08-09T02:23:54.791Z,59.57
2022-08-09T02:26:28.264Z,59.73
2022-08-09T02:29:11.185Z,59.76
2022-08-09T02:31:43.579Z,59.78
2022-08-09T02:34:38.680Z,59.87
2022-08-09T02:37:07.882Z,59.89
2022-08-09T02:39:49.653Z,59.91
2022-08-09T02:42:28.050Z,60.11
2022-08-09T02:45:02.001Z,60.35
2022-08-09T02:47:39.656Z,60.53
2022-08-09T02:50:24.440Z,60.67
2022-08-09T02:53:00.239Z,60.63
2022-08-09T02:55:53.775Z,60.77
2022-08-09T02:58:36.971Z,61.02
2022-08-09T03:01:11.312Z,61.19
2022-08-09T03:04:18.425Z,61.31
2022-08-09T03:06:34.003Z,61.54
2022-08-09T03:09:05.119Z,61.68
2022-08-09T03:12:10.652Z,61.95
2022-08-09T03:14:28.329Z,62.06
2022-08-09T03:16:58.448Z,62.23
2022-08-09T03:19:58.503Z,62.33
2022-08-09T03:22:19.734Z,62.46
2022-08-09T03:25:05.785Z,62.48
2022-08-09T03:27:45.904Z,62.87
2022-08-09T03:30:29.482Z,62.93
2022-08-09T03:33:12.864Z,63.15
2022-08-09T03:36:12.431Z,63.30
2022-08-09T03:38:43.141Z,63.52
2022-08-09T03:41:16.690Z,63.51
2022-08-09T03:44:02.882Z,63.51
2022-08-09T03:46:36.625Z,63.59
2022-08-09T03:49:07.937Z,63.66
2022-08-09T03:51:56.961Z,63.59
2022-08-09T03:54:32.239Z,63.41
2022-08-09T03:57:04.390Z,63.39
2022-08-09T03:59:54.227Z,63.69
2022-08-09T04:02:27.321Z,63.69
2022-08-09T04:05:05.854Z,63.88
2022-08-09T04:07:52.357Z,63.74
2022-08-09T04:10:29.133Z,63.57
2022-08-09T04:13:01.270Z,63.74
2022-08-09T04:15:52.103Z,63.78
2022-08-09T04:18:21.900Z,63.80
2022-08-09T04:20:51.502Z,63.86
2022-08-09T04:23:23.169Z,64.09
2022-08-09T04:25:53.626Z,64.29
2022-08-09T04:28:33.163Z,64.42
2022-08-09T04:31:08.140Z,64.54
2022-08-09T04:33:47.299Z,64.52
2022-08-09T04:36:24.465Z,64.60
2022-08-09T04:38:53.697Z,64.30
2022-08-09T04:41:23.797Z,64.35
2022-08-09T04:44:04.892Z,64.40
2022-08-09T04:46:37.775Z,64.54
2022-08-09T04:49:30.137Z,64.68
2022-08-09T04:52:09.721Z,64.68
2022-08-09T04:54:37.613Z,64.52
2022-08-09T04:57:05.447Z,64.42
2022-08-09T04:59:37.964Z,64.68
2022-08-09T05:02:05.744Z,64.77
2022-08-09T05:04:34.267Z,64.73
2022-08-09T05:07:02.122Z,64.65
2022-08-09T05:09:41.898Z,64.81
2022-08-09T05:12:12.600Z,64.52
2022-08-09T05:14:41.311Z,64.65
2022-08-09T05:17:15.441Z,64.73
2022-08-09T05:19:58.205Z,64.82
2022-08-09T05:22:36.016Z,64.69
2022-08-09T05:25:15.206Z,64.72
2022-08-09T05:27:45.555Z,64.81
2022-08-09T05:30:17.836Z,64.84
2022-08-09T05:32:50.857Z,64.77
2022-08-09T05:35:21.988Z,64.64
2022-08-09T05:37:51.137Z,64.43
2022-08-09T05:40:19.004Z,64.27
2022-08-09T05:42:47.582Z,63.93
2022-08-09T05:45:16.167Z,63.82
2022-08-09T05:47:51.806Z,63.82
2022-08-09T05:50:36.135Z,63.84
2022-08-09T05:53:21.657Z,63.60
2022-08-09T05:55:59.749Z,63.32
2022-08-09T05:58:29.333Z,63.33
2022-08-09T06:00:58.242Z,63.03
2022-08-09T06:03:34.794Z,62.77
2022-08-09T06:06:12.009Z,62.79
2022-08-09T06:08:41.046Z,62.54
2022-08-09T06:11:16.479Z,62.29
2022-08-09T06:13:47.411Z,62.26
2022-08-09T06:16:16.318Z,62.21
2022-08-09T06:18:44.891Z,62.45
2022-08-09T06:21:12.677Z,62.41
2022-08-09T06:23:58.917Z,62.37
2022-08-09T06:26:30.212Z,62.19
2022-08-09T06:29:04.699Z,62.26
2022-08-09T06:31:39.288Z,61.96
2022-08-09T06:34:26.284Z,61.62
2022-08-09T06:36:59.853Z,61.73
2022-08-09T06:39:48.759Z,61.77
2022-08-09T06:42:24.886Z,61.71
2022-08-09T06:44:57.504Z,61.49
2022-08-09T06:47:30.000Z,61.18
2022-08-09T06:50:14.155Z,60.99
2022-08-09T06:52:48.536Z,61.27
2022-08-09T06:55:23.370Z,61.16
2022-08-09T06:58:03.469Z,61.10
2022-08-09T07:00:54.214Z,60.91
2022-08-09T07:03:28.267Z,60.41
2022-08-09T07:06:03.654Z,60.19
2022-08-09T07:08:34.664Z,59.94
2022-08-09T07:11:04.300Z,59.57
2022-08-09T07:13:45.315Z,59.71
2022-08-09T07:16:41.166Z,58.35
2022-08-09T07:19:15.630Z,56.89
2022-08-09T07:21:55.890Z,52.81
2022-08-09T07:24:32.466Z,50.43
2022-08-09T07:27:27.282Z,49.61
2022-08-09T07:30:00.250Z,50.36
2022-08-09T07:32:33.301Z,49.37
2022-08-09T07:35:10.459Z,49.08
2022-08-09T07:37:44.113Z,48.60
2022-08-09T07:40:17.041Z,47.64
2022-08-09T07:42:57.133Z,47.13
2022-08-09T07:45:37.926Z,47.19
2022-08-09T07:48:28.917Z,46.68
2022-08-09T07:51:09.657Z,48.31
2022-08-09T07:54:06.855Z,48.18
2022-08-09T07:56:44.726Z,47.91
2022-08-09T07:59:33.765Z,47.46
2022-08-09T08:02:06.724Z,48.04
2022-08-09T08:04:37.220Z,49.93
2022-08-09T08:07:09.321Z,49.33
2022-08-09T08:09:51.660Z,49.61
2022-08-09T08:12:28.131Z,48.16
2022-08-09T08:14:57.715Z,49.64
2022-08-09T08:17:52.080Z,48.53
2022-08-09T08:20:15.076Z,48.33
2022-08-09T08:22:42.922Z,48.03
2022-08-09T08:25:13.538Z,48.49
2022-08-09T08:27:43.174Z,49.83
2022-08-09T08:30:13.836Z,49.24
2022-08-09T08:32:53.538Z,48.55
2022-08-09T08:35:22.819Z,50.04
2022-08-09T08:37:59.503Z,48.53
2022-08-09T08:40:29.707Z,49.03
2022-08-09T08:42:58.729Z,49.17
2022-08-09T08:45:37.076Z,49.46
2022-08-09T08:48:06.263Z,49.43
2022-08-09T08:50:38.402Z,49.43
2022-08-09T08:53:11.867Z,49.02
2022-08-09T08:55:44.003Z,50.16
2022-08-09T08:58:12.049Z,48.77
2022-08-09T09:00:42.820Z,49.58
2022-08-09T09:03:25.171Z,45.98
2022-08-09T09:06:05.824Z,45.34
2022-08-09T09:08:38.117Z,41.63
2022-08-09T09:11:17.796Z,38.01
2022-08-09T09:13:57.406Z,35.11
2022-08-09T09:16:33.841Z,31.87
2022-08-09T09:19:39.356Z,30.40
2022-08-09T09:22:03.741Z,30.33
2022-08-09T09:24:38.902Z,30.49
2022-08-09T09:27:47.235Z,29.48
2022-08-09T09:30:14.091Z,28.66
2022-08-09T09:33:02.728Z,30.15
2022-08-09T09:36:02.488Z,29.81
2022-08-09T09:38:49.348Z,29.97
2022-08-09T09:41:33.066Z,30.60
2022-08-09T09:44:10.833Z,32.42
2022-08-09T09:46:50.743Z,34.50
2022-08-09T09:49:23.495Z,34.73
2022-08-09T09:52:16.664Z,33.79
2022-08-09T09:55:16.379Z,31.73
2022-08-09T09:58:03.081Z,30.54
2022-08-09T10:00:33.614Z,29.40
2022-08-09T10:03:11.450Z,30.42
2022-08-09T10:06:03.290Z,31.55
2022-08-09T10:08:32.491Z,31.96
2022-08-09T10:11:59.376Z,32.09
2022-08-09T10:14:05.188Z,32.51
2022-08-09T10:16:58.171Z,32.78
2022-08-09T10:19:37.402Z,33.39
2022-08-09T10:22:05.911Z,33.26
2022-08-09T10:24:36.083Z,33.37
2022-08-09T10:27:05.411Z,35.69
2022-08-09T10:30:57.867Z,34.97
2022-08-09T10:32:40.309Z,35.37
2022-08-09T10:35:10.943Z,36.22
2022-08-09T10:37:44.025Z,36.01
2022-08-09T10:40:34.995Z,36.30
2022-08-09T10:43:02.181Z,36.59
2022-08-09T10:45:35.406Z,36.43
2022-08-09T10:48:33.838Z,36.01
2022-08-09T10:51:45.899Z,36.43
2022-08-09T10:54:25.481Z,36.54
2022-08-09T10:57:09.858Z,36.60
2022-08-09T10:59:43.162Z,37.07
2022-08-09T11:03:14.276Z,37.53
2022-08-09T11:05:30.136Z,38.05
2022-08-09T11:08:43.556Z,38.67
2022-08-09T11:11:17.539Z,38.96
2022-08-09T11:13:50.660Z,39.21
2022-08-09T11:16:40.953Z,39.29
2022-08-09T11:19:11.005Z,39.96
2022-08-09T11:22:10.276Z,39.76
2022-08-09T11:25:19.197Z,40.67
2022-08-09T11:28:04.069Z,41.13
2022-08-09T11:30:36.393Z,40.92
2022-08-09T11:33:40.107Z,41.79
2022-08-09T11:36:08.667Z,41.58
2022-08-09T11:38:42.630Z,41.52
2022-08-09T11:41:15.940Z,41.83
2022-08-09T11:43:49.050Z,42.56
2022-08-09T11:46:26.638Z,41.80
2022-08-09T11:49:04.946Z,41.12
2022-08-09T11:53:00.869Z,41.58
2022-08-09T11:55:35.114Z,42.44
2022-08-09T11:58:15.661Z,42.58
2022-08-09T12:00:55.050Z,42.75
2022-08-09T12:03:55.472Z,42.33
2022-08-09T12:06:26.836Z,43.56
2022-08-09T12:09:06.616Z,41.80
2022-08-09T12:12:04.050Z,41.77
2022-08-09T12:14:40.977Z,41.94
2022-08-09T12:17:34.733Z,41.53
2022-08-09T12:20:22.235Z,41.87
2022-08-09T12:22:56.896Z,41.69
2022-08-09T12:25:36.158Z,41.66
2022-08-09T12:28:59.247Z,41.19
2022-08-09T12:31:11.100Z,41.41
2022-08-09T12:34:00.878Z,41.90
2022-08-09T12:36:33.877Z,41.85
2022-08-09T12:39:14.379Z,41.81
2022-08-09T12:41:42.235Z,41.75
2022-08-09T12:44:13.032Z,41.35
2022-08-09T12:46:48.634Z,41.70
2022-08-09T12:49:20.915Z,42.03
2022-08-09T12:52:01.048Z,42.33
2022-08-09T12:55:03.235Z,41.14
2022-08-09T12:57:39.353Z,41.40
2022-08-09T13:00:17.597Z,41.94
2022-08-09T13:02:53.483Z,40.93
2022-08-09T13:05:25.274Z,41.32
2022-08-09T13:08:21.257Z,41.95
2022-08-09T13:11:23.218Z,41.15
2022-08-09T13:14:38.676Z,41.79
2022-08-09T13:16:57.715Z,41.31
2022-08-09T13:20:11.303Z,41.54
2022-08-09T13:22:45.539Z,42.24
2022-08-09T13:25:14.496Z,42.01
2022-08-09T13:27:48.603Z,41.30
2022-08-09T13:30:49.208Z,41.49
2022-08-09T13:33:22.778Z,41.88
2022-08-09T13:36:38.385Z,42.35
2022-08-09T13:38:57.390Z,42.81
2022-08-09T13:41:54.740Z,42.79
2022-08-09T13:44:17.062Z,43.58
2022-08-09T13:47:29.356Z,43.60
2022-08-09T13:49:39.799Z,43.20
2022-08-09T13:52:30.653Z,42.58
2022-08-09T13:55:04.749Z,42.94
2022-08-09T13:57:40.716Z,42.71
2022-08-09T14:00:17.774Z,42.26
2022-08-09T14:03:04.535Z,42.65
2022-08-09T14:05:58.951Z,43.11
2022-08-09T14:08:27.120Z,43.27
2022-08-09T14:10:56.215Z,43.49
2022-08-09T14:14:14.682Z,43.72
2022-08-09T14:16:16.689Z,44.29
2022-08-09T14:18:49.560Z,44.01
2022-08-09T14:21:24.076Z,44.14
2022-08-09T14:23:56.714Z,44.80
2022-08-09T14:26:32.253Z,44.42
2022-08-09T14:29:07.964Z,43.84
2022-08-09T14:31:54.711Z,44.25
2022-08-09T14:34:31.201Z,44.71
2022-08-09T14:37:06.667Z,44.97
2022-08-09T14:39:45.851Z,44.21
2022-08-09T14:42:30.847Z,44.12
2022-08-09T14:46:54.806Z,43.63
2022-08-09T14:47:58.055Z,43.17
2022-08-09T14:50:30.708Z,43.56
2022-08-09T14:53:06.203Z,43.04
2022-08-09T14:55:42.401Z,42.92
2022-08-09T14:58:19.087Z,43.03
2022-08-09T15:00:48.115Z,43.17
2022-08-09T15:03:19.980Z,43.52
2022-08-09T15:05:52.645Z,43.74
2022-08-09T15:08:26.016Z,43.97
2022-08-09T15:11:00.285Z,43.66
2022-08-09T15:13:48.424Z,43.76
2022-08-09T15:16:18.182Z,43.19
2022-08-09T15:18:48.322Z,43.22
2022-08-09T15:21:54.799Z,43.53
2022-08-09T15:24:12.544Z,43.63
2022-08-09T15:26:45.919Z,43.76
2022-08-09T15:30:48.270Z,43.87
2022-08-09T15:32:06.395Z,44.15
2022-08-09T15:34:55.121Z,44.42
2022-08-09T15:37:37.068Z,44.68
2022-08-09T15:40:11.817Z,44.96
2022-08-09T15:42:42.503Z,44.30
2022-08-09T15:45:12.854Z,44.34
2022-08-09T15:47:52.832Z,44.25
2022-08-09T15:50:29.526Z,44.00
2022-08-09T15:53:07.048Z,43.94
2022-08-09T15:56:11.094Z,43.73
2022-08-09T15:58:34.253Z,43.58
2022-08-09T16:01:02.512Z,43.52
2022-08-09T16:03:38.745Z,43.52
2022-08-09T16:06:32.618Z,43.56
2022-08-09T16:09:01.174Z,43.58
2022-08-09T16:11:33.115Z,43.57
2022-08-09T16:14:07.106Z,43.63
2022-08-09T16:16:38.118Z,43.70
2022-08-09T16:19:08.383Z,43.75
2022-08-09T16:21:37.199Z,43.75
2022-08-09T16:24:08.950Z,43.73
2022-08-09T16:26:55.396Z,43.83
2022-08-09T16:29:37.084Z,43.92
2022-08-09T16:32:17.695Z,44.05
2022-08-09T16:34:58.015Z,44.14
2022-08-09T16:37:55.956Z,44.17
2022-08-09T16:40:20.658Z,44.17
2022-08-09T16:43:04.820Z,44.03
2022-08-09T16:45:33.067Z,44.12
2022-08-09T16:48:38.669Z,44.32
2022-08-09T16:50:58.827Z,44.28
2022-08-09T16:53:33.862Z,44.44
2022-08-09T16:56:09.333Z,44.72
2022-08-09T16:58:42.598Z,44.84
2022-08-09T17:01:19.402Z,44.82
2022-08-09T17:03:52.997Z,44.89
2022-08-09T17:06:31.631Z,45.01
2022-08-09T17:09:09.432Z,45.20
2022-08-09T17:11:51.269Z,45.30
2022-08-09T17:14:27.161Z,45.18
2022-08-09T17:17:00.015Z,45.32
2022-08-09T17:19:47.423Z,45.26
2022-08-09T17:22:24.116Z,45.30
2022-08-09T17:25:03.075Z,45.44
2022-08-09T17:27:33.922Z,45.58
2022-08-09T17:30:04.636Z,45.86
2022-08-09T17:32:38.304Z,46.20
2022-08-09T17:35:12.369Z,45.87
2022-08-09T17:38:02.576Z,46.03
2022-08-09T17:40:33.241Z,46.49
2022-08-09T17:43:32.783Z,46.52
2022-08-09T17:46:02.802Z,46.68
2022-08-09T17:48:33.120Z,46.64
2022-08-09T17:51:09.738Z,47.67
2022-08-09T17:53:47.978Z,47.48
2022-08-09T17:56:35.387Z,47.29
2022-08-09T17:59:11.343Z,47.80
2022-08-09T18:02:07.739Z,48.00
2022-08-09T18:04:28.982Z,48.30
2022-08-09T18:06:57.420Z,48.35
2022-08-09T18:09:41.019Z,48.53
2022-08-09T18:12:17.506Z,48.39
2022-08-09T18:14:55.217Z,48.57
2022-08-09T18:18:01.607Z,48.70
2022-08-09T18:20:53.887Z,49.84
2022-08-09T18:23:05.002Z,50.33
2022-08-09T18:25:53.061Z,51.01
2022-08-09T18:30:40.041Z,51.18
2022-08-09T18:31:12.409Z,51.62
2022-08-09T18:33:40.629Z,51.70
2022-08-09T18:36:14.159Z,52.10
2022-08-09T18:38:57.513Z,52.47
2022-08-09T18:41:35.105Z,52.55
2022-08-09T18:44:13.083Z,53.14
2022-08-09T18:47:04.886Z,53.38
2022-08-09T18:49:43.690Z,53.67
2022-08-09T18:52:24.579Z,54.21
2022-08-09T18:54:56.256Z,54.41
2022-08-09T18:57:38.637Z,54.73
2022-08-09T19:00:16.795Z,55.16
2022-08-09T19:02:51.180Z,55.52
2022-08-09T19:05:41.284Z,55.53
2022-08-09T19:08:14.046Z,55.78
2022-08-09T19:10:48.037Z,56.41
2022-08-09T19:13:20.235Z,56.81
2022-08-09T19:15:55.753Z,57.08
2022-08-09T19:18:33.384Z,57.50
2022-08-09T19:21:09.818Z,58.06
2022-08-09T19:24:36.081Z,58.21
2022-08-09T19:26:34.660Z,58.39
2022-08-09T19:29:15.364Z,58.73
2022-08-09T19:31:51.384Z,58.88
2022-08-09T19:34:23.184Z,58.98
2022-08-09T19:36:53.633Z,59.21
2022-08-09T19:39:43.012Z,59.37
2022-08-09T19:42:15.322Z,59.61
2022-08-09T19:44:49.499Z,59.78
2022-08-09T19:47:22.985Z,59.95
2022-08-09T19:50:09.091Z,60.03
2022-08-09T19:52:49.361Z,60.28
2022-08-09T19:55:25.548Z,60.60
2022-08-09T19:57:59.628Z,60.81
2022-08-09T20:00:27.597Z,60.89
2022-08-09T20:04:11.399Z,61.00
2022-08-09T20:05:46.798Z,61.26
2022-08-09T20:08:24.990Z,61.42
2022-08-09T20:11:04.828Z,61.85
2022-08-09T20:13:37.183Z,61.65
2022-08-09T20:16:33.755Z,61.80
2022-08-09T20:19:42.369Z,61.66
2022-08-09T20:21:55.131Z,61.72
2022-08-09T20:24:32.095Z,61.87
2022-08-09T20:27:05.703Z,62.39
2022-08-09T20:29:38.812Z,62.46
2022-08-09T20:32:31.301Z,62.55
2022-08-09T20:35:00.077Z,62.70
2022-08-09T20:37:37.335Z,62.64
2022-08-09T20:40:27.014Z,62.97
2022-08-09T20:43:18.446Z,63.03
2022-08-09T20:46:00.452Z,63.14
2022-08-09T20:48:38.342Z,62.96
2022-08-09T20:51:06.884Z,63.12
2022-08-09T20:53:36.565Z,63.38
2022-08-09T20:56:17.315Z,63.73
2022-08-09T20:58:54.552Z,63.79
2022-08-09T21:01:34.726Z,63.93
2022-08-09T21:05:54.618Z,64.02
2022-08-09T21:07:12.254Z,64.05
2022-08-09T21:09:45.624Z,63.99
2022-08-09T21:14:50.205Z,64.50
2022-08-09T21:18:11.236Z,64.62
2022-08-09T21:20:22.535Z,64.87
2022-08-09T21:22:54.885Z,65.15
2022-08-09T21:25:43.945Z,65.30
2022-08-09T21:28:34.787Z,65.74
2022-08-09T21:31:17.444Z,65.71
2022-08-09T21:33:50.811Z,65.77
2022-08-09T21:36:28.165Z,65.76
2022-08-09T21:38:59.326Z,65.80
2022-08-09T21:42:05.884Z,65.82
2022-08-09T21:44:33.000Z,66.36
2022-08-09T21:47:05.010Z,66.46
2022-08-09T21:49:39.430Z,66.64
2022-08-09T21:52:17.090Z,66.84
2022-08-09T21:55:03.690Z,67.15
2022-08-09T21:57:58.732Z,67.31
2022-08-09T22:00:32.453Z,67.11
2022-08-09T22:03:07.331Z,67.37
2022-08-09T22:05:42.307Z,67.43
2022-08-09T22:08:16.376Z,67.65
2022-08-09T22:11:50.465Z,67.82
2022-08-09T22:13:35.602Z,67.93
2022-08-09T22:16:09.063Z,67.92
2022-08-09T22:18:52.923Z,68.01
2022-08-09T22:21:27.461Z,68.10
2022-08-09T22:24:17.111Z,68.28
2022-08-09T22:26:51.646Z,68.25
2022-08-09T22:29:26.876Z,68.48
2022-08-09T22:32:00.469Z,68.84
2022-08-09T22:34:28.770Z,69.03
2022-08-09T22:36:58.307Z,69.16
2022-08-09T22:39:56.305Z,69.24
2022-08-09T22:42:21.056Z,69.27
2022-08-09T22:48:06.112Z,69.26
2022-08-09T22:48:14.810Z,69.51
2022-08-09T22:50:32.593Z,69.68
2022-08-09T22:53:03.914Z,69.81
2022-08-09T22:56:07.157Z,69.95
2022-08-09T22:58:33.150Z,70.20
2022-08-09T23:01:05.964Z,70.18
2022-08-09T23:04:06.041Z,70.26
2022-08-09T23:06:35.093Z,70.35
2022-08-09T23:09:06.153Z,70.47
2022-08-09T23:11:34.149Z,70.44
2022-08-09T23:14:03.648Z,70.53
2022-08-09T23:16:34.275Z,70.75
2022-08-09T23:19:02.333Z,70.91
2022-08-09T23:21:34.157Z,70.86
2022-08-09T23:24:06.805Z,70.90
2022-08-09T23:26:36.589Z,71.05
2022-08-09T23:29:11.442Z,71.08
2022-08-09T23:31:40.802Z,71.25
2022-08-09T23:34:09.594Z,71.38
2022-08-09T23:36:37.517Z,71.46
2022-08-09T23:39:07.537Z,71.46
2022-08-09T23:41:35.674Z,71.52
2022-08-09T23:44:03.930Z,71.61
2022-08-09T23:46:32.730Z,71.61
2022-08-09T23:49:01.109Z,71.77
2022-08-09T23:51:28.955Z,71.85
2022-08-09T23:54:03.255Z,71.89
2022-08-09T23:56:51.999Z,71.97
2022-08-09T23:59:21.680Z,72.05
